createdAt,value
2022-08-07T00:01:12.552Z,13.55
2022-08-07T00:03:48.789Z,13.88
2022-08-07T00:06:15.246Z,13.69
2022-08-07T00:08:44.323Z,13.43
2022-08-07T00:11:11.126Z,13.27
2022-08-07T00:13:44.741Z,13.06
2022-08-07T00:16:11.547Z,13.03
2022-08-07T00:18:43.800Z,12.97
2022-08-07T00:21:56.887Z,12.86
2022-08-07T00:23:56.714Z,13.12
2022-08-07T00:26:36.211Z,13.14
2022-08-07T00:29:09.687Z,12.80
2022-08-07T00:31:42.147Z,12.71
2022-08-07T00:34:09.315Z,12.69
2022-08-07T00:36:36.216Z,12.63
2022-08-07T00:39:05.121Z,12.93
2022-08-07T00:41:31.861Z,12.77
2022-08-07T00:44:03.706Z,12.74
2022-08-07T00:46:30.922Z,12.71
2022-08-07T00:49:03.005Z,12.55
2022-08-07T00:51:41.917Z,12.47
2022-08-07T00:54:16.385Z,12.40
2022-08-07T00:56:46.075Z,12.43
2022-08-07T00:59:16.338Z,12.35
2022-08-07T01:01:44.490Z,12.33
2022-08-07T01:04:11.239Z,12.33
2022-08-07T01:06:50.184Z,12.34
2022-08-07T01:10:03.999Z,12.35
2022-08-07T01:12:27.377Z,12.74
2022-08-07T01:14:49.389Z,12.86
2022-08-07T01:17:23.468Z,12.83
2022-08-07T01:19:54.263Z,12.77
2022-08-07T01:22:22.888Z,12.59
2022-08-07T01:24:55.935Z,12.65
2022-08-07T01:27:22.353Z,12.58
2022-08-07T01:29:50.578Z,12.41
2022-08-07T01:32:17.181Z,12.46
2022-08-07T01:34:47.207Z,12.53
2022-08-07T01:37:17.146Z,12.74
2022-08-07T01:39:46.870Z,12.72
2022-08-07T01:42:39.639Z,12.67
2022-08-07T01:45:00.218Z,12.80
2022-08-07T01:48:21.602Z,12.67
2022-08-07T01:50:13.111Z,12.55
2022-08-07T01:52:49.789Z,12.58
2022-08-07T01:55:24.140Z,12.35
2022-08-07T01:58:06.337Z,12.25
2022-08-07T02:00:38.772Z,12.22
2022-08-07T02:03:21.252Z,12.36
2022-08-07T02:05:59.408Z,12.46
2022-08-07T02:08:26.662Z,12.19
2022-08-07T02:10:55.365Z,12.22
2022-08-07T02:13:56.709Z,12.31
2022-08-07T02:16:12.048Z,12.06
2022-08-07T02:18:38.505Z,12.00
2022-08-07T02:21:13.796Z,11.93
2022-08-07T02:23:42.903Z,11.84
2022-08-07T02:26:32.366Z,11.93
2022-08-07T02:28:57.451Z,11.93
2022-08-07T02:31:28.781Z,12.04
2022-08-07T02:34:03.611Z,12.08
2022-08-07T02:36:32.974Z,11.97
2022-08-07T02:38:59.929Z,12.02
2022-08-07T02:41:33.316Z,12.12
2022-08-07T02:44:03.610Z,11.92
2022-08-07T02:46:31.449Z,11.79
2022-08-07T02:48:58.091Z,11.88
2022-08-07T02:51:42.953Z,12.06
2022-08-07T02:54:10.860Z,11.95
2022-08-07T02:56:39.658Z,11.84
2022-08-07T02:59:09.594Z,11.85
2022-08-07T03:01:39.973Z,11.90
2022-08-07T03:04:07.814Z,11.80
2022-08-07T03:06:39.847Z,11.68
2022-08-07T03:09:07.457Z,11.81
2022-08-07T03:11:38.650Z,11.90
2022-08-07T03:14:05.918Z,11.77
2022-08-07T03:16:32.567Z,11.68
2022-08-07T03:18:59.490Z,11.72
2022-08-07T03:21:27.429Z,11.87
2022-08-07T03:24:17.909Z,11.82
2022-08-07T03:26:51.262Z,11.81
2022-08-07T03:29:25.025Z,11.95
2022-08-07T03:31:53.988Z,11.79
2022-08-07T03:34:22.860Z,11.79
2022-08-07T03:36:53.780Z,11.71
2022-08-07T03:39:59.402Z,11.69
2022-08-07T03:42:06.617Z,11.57
2022-08-07T03:44:36.217Z,11.61
2022-08-07T03:47:13.802Z,11.70
2022-08-07T03:49:41.203Z,11.86
2022-08-07T03:52:07.554Z,12.03
2022-08-07T03:54:54.476Z,11.84
2022-08-07T03:58:33.395Z,11.81
2022-08-07T04:00:09.016Z,11.82
2022-08-07T04:02:36.950Z,11.86
2022-08-07T04:05:07.961Z,11.67
2022-08-07T04:07:42.374Z,11.61
2022-08-07T04:10:15.767Z,11.78
2022-08-07T04:12:45.829Z,11.74
2022-08-07T04:15:13.673Z,11.63
2022-08-07T04:18:58.299Z,11.69
2022-08-07T04:20:28.686Z,11.94
2022-08-07T04:23:01.315Z,12.07
2022-08-07T04:25:28.990Z,12.16
2022-08-07T04:27:58.968Z,12.24
2022-08-07T04:30:39.527Z,12.36
2022-08-07T04:33:13.799Z,12.44
2022-08-07T04:35:40.443Z,12.57
2022-08-07T04:38:07.909Z,12.83
2022-08-07T04:40:34.854Z,13.07
2022-08-07T04:43:03.631Z,13.29
2022-08-07T04:45:57.750Z,13.31
2022-08-07T04:48:24.168Z,13.71
2022-08-07T04:50:51.975Z,13.85
2022-08-07T04:54:00.973Z,13.98
2022-08-07T04:58:15.943Z,14.26
2022-08-07T05:00:10.654Z,14.66
2022-08-07T05:02:16.662Z,14.96
2022-08-07T05:04:50.228Z,15.18
2022-08-07T05:07:23.302Z,15.26
2022-08-07T05:09:58.431Z,15.32
2022-08-07T05:12:32.306Z,15.52
2022-08-07T05:15:23.638Z,15.59
2022-08-07T05:17:55.243Z,15.71
2022-08-07T05:20:26.853Z,15.73
2022-08-07T05:22:54.747Z,15.54
2022-08-07T05:25:25.810Z,15.69
2022-08-07T05:28:20.568Z,15.97
2022-08-07T05:30:49.602Z,16.26
2022-08-07T05:33:18.058Z,16.49
2022-08-07T05:35:47.851Z,16.66
2022-08-07T05:38:59.452Z,16.62
2022-08-07T05:41:01.325Z,16.88
2022-08-07T05:43:50.059Z,16.84
2022-08-07T05:46:26.416Z,16.46
2022-08-07T05:48:57.403Z,16.49
2022-08-07T05:51:25.726Z,16.34
2022-08-07T05:54:12.731Z,16.37
2022-08-07T05:56:44.340Z,16.55
2022-08-07T05:59:14.545Z,16.43
2022-08-07T06:01:40.927Z,16.62
2022-08-07T06:04:07.315Z,16.67
2022-08-07T06:06:34.048Z,16.67
2022-08-07T06:09:04.388Z,16.49
2022-08-07T06:11:31.462Z,16.58
2022-08-07T06:14:11.595Z,16.96
2022-08-07T06:16:40.494Z,16.96
2022-08-07T06:19:06.861Z,17.36
2022-08-07T06:22:15.026Z,17.08
2022-08-07T06:24:46.178Z,17.58
2022-08-07T06:27:05.991Z,17.59
2022-08-07T06:29:34.452Z,17.66
2022-08-07T06:32:05.275Z,17.85
2022-08-07T06:34:31.657Z,18.11
2022-08-07T06:36:58.008Z,17.79
2022-08-07T06:40:17.916Z,17.68
2022-08-07T06:42:13.579Z,17.56
2022-08-07T06:44:39.971Z,17.92
2022-08-07T06:47:10.075Z,18.15
2022-08-07T06:49:51.752Z,18.07
2022-08-07T06:52:18.912Z,17.93
2022-08-07T06:55:32.147Z,18.11
2022-08-07T06:57:50.937Z,18.16
2022-08-07T07:00:18.695Z,18.03
2022-08-07T07:02:54.289Z,18.61
2022-08-07T07:06:03.376Z,18.93
2022-08-07T07:08:18.634Z,19.02
2022-08-07T07:10:56.802Z,19.18
2022-08-07T07:13:40.525Z,18.94
2022-08-07T07:16:18.038Z,19.44
2022-08-07T07:18:48.789Z,19.29
2022-08-07T07:21:19.241Z,19.37
2022-08-07T07:24:10.247Z,19.42
2022-08-07T07:26:36.950Z,19.34
2022-08-07T07:29:56.258Z,19.65
2022-08-07T07:31:52.518Z,19.53
2022-08-07T07:34:22.010Z,19.65
2022-08-07T07:36:57.951Z,19.86
2022-08-07T07:39:51.999Z,19.88
2022-08-07T07:42:25.677Z,20.23
2022-08-07T07:44:56.359Z,19.74
2022-08-07T07:47:23.614Z,19.81
2022-08-07T07:50:35.166Z,19.86
2022-08-07T07:52:37.650Z,20.24
2022-08-07T07:55:06.673Z,20.44
2022-08-07T07:57:51.455Z,20.73
2022-08-07T08:00:28.950Z,20.97
2022-08-07T08:03:06.049Z,21.26
2022-08-07T08:05:54.496Z,20.83
2022-08-07T08:08:34.394Z,20.82
2022-08-07T08:11:02.309Z,21.24
2022-08-07T08:13:33.269Z,21.07
2022-08-07T08:16:12.689Z,20.77
2022-08-07T08:18:39.409Z,21.02
2022-08-07T08:21:07.549Z,21.00
2022-08-07T08:23:53.534Z,21.52
2022-08-07T08:26:38.640Z,21.43
2022-08-07T08:29:05.179Z,21.67
2022-08-07T08:32:04.822Z,21.87
2022-08-07T08:34:27.242Z,22.05
2022-08-07T08:36:57.831Z,21.82
2022-08-07T08:39:25.079Z,21.77
2022-08-07T08:42:26.031Z,21.33
2022-08-07T08:44:52.350Z,21.68
2022-08-07T08:47:26.543Z,22.01
2022-08-07T08:50:04.875Z,22.00
2022-08-07T08:52:40.815Z,22.20
2022-08-07T08:55:20.797Z,22.38
2022-08-07T08:58:08.581Z,22.82
2022-08-07T09:00:51.835Z,23.39
2022-08-07T09:03:23.359Z,23.11
2022-08-07T09:06:11.490Z,22.54
2022-08-07T09:08:53.391Z,22.47
2022-08-07T09:11:24.364Z,22.25
2022-08-07T09:14:12.686Z,22.74
2022-08-07T09:16:42.701Z,22.43
2022-08-07T09:19:51.000Z,22.85
2022-08-07T09:24:28.863Z,23.20
2022-08-07T09:25:24.847Z,22.90
2022-08-07T09:28:00.331Z,23.23
2022-08-07T09:30:29.593Z,22.98
2022-08-07T09:32:59.137Z,23.45
2022-08-07T09:36:04.710Z,23.55
2022-08-07T09:38:59.538Z,22.83
2022-08-07T09:41:58.539Z,23.86
2022-08-07T09:44:58.726Z,23.78
2022-08-07T09:48:00.888Z,24.19
2022-08-07T09:50:45.552Z,23.33
2022-08-07T09:53:13.321Z,22.43
2022-08-07T09:56:03.135Z,22.19
2022-08-07T09:59:07.840Z,22.00
2022-08-07T10:01:58.983Z,21.62
2022-08-07T10:04:32.755Z,21.67
2022-08-07T10:07:26.285Z,21.65
2022-08-07T10:10:11.880Z,22.26
2022-08-07T10:12:58.091Z,22.76
2022-08-07T10:15:24.435Z,23.62
2022-08-07T10:18:08.521Z,23.83
2022-08-07T10:20:54.565Z,23.01
2022-08-07T10:24:06.069Z,23.67
2022-08-07T10:26:37.276Z,23.46
2022-08-07T10:29:11.435Z,24.01
2022-08-07T10:31:49.529Z,23.81
2022-08-07T10:34:18.498Z,24.55
2022-08-07T10:36:58.319Z,24.79
2022-08-07T10:39:41.923Z,24.14
2022-08-07T10:42:36.737Z,22.98
2022-08-07T10:45:11.945Z,22.60
2022-08-07T10:47:54.965Z,22.53
2022-08-07T10:50:26.557Z,22.58
2022-08-07T10:52:52.948Z,22.33
2022-08-07T10:55:38.690Z,22.02
2022-08-07T10:58:12.954Z,21.57
2022-08-07T11:01:02.679Z,21.92
2022-08-07T11:03:52.998Z,22.05
2022-08-07T11:06:40.218Z,22.35
2022-08-07T11:10:09.859Z,22.10
2022-08-07T11:12:31.523Z,22.28
2022-08-07T11:15:01.033Z,22.31
2022-08-07T11:17:43.394Z,22.39
2022-08-07T11:20:19.745Z,23.19
2022-08-07T11:22:51.482Z,23.00
2022-08-07T11:25:21.706Z,23.64
2022-08-07T11:28:01.300Z,23.12
2022-08-07T11:30:41.532Z,22.97
2022-08-07T11:33:17.643Z,23.38
2022-08-07T11:35:59.736Z,23.58
2022-08-07T11:38:30.665Z,23.49
2022-08-07T11:40:59.506Z,23.68
2022-08-07T11:43:41.677Z,23.55
2022-08-07T11:46:31.962Z,24.65
2022-08-07T11:49:51.420Z,25.29
2022-08-07T11:52:07.691Z,24.83
2022-08-07T11:54:54.773Z,25.18
2022-08-07T11:58:00.093Z,25.68
2022-08-07T12:00:19.271Z,25.04
2022-08-07T12:02:52.195Z,25.92
2022-08-07T12:05:48.878Z,25.68
2022-08-07T12:08:25.823Z,26.46
2022-08-07T12:11:21.056Z,26.06
2022-08-07T12:14:08.478Z,25.01
2022-08-07T12:16:36.731Z,25.15
2022-08-07T12:19:22.517Z,25.15
2022-08-07T12:22:36.190Z,24.43
2022-08-07T12:25:02.311Z,24.58
2022-08-07T12:28:09.502Z,25.76
2022-08-07T12:30:16.347Z,26.36
2022-08-07T12:33:01.844Z,25.34
2022-08-07T12:35:36.329Z,24.56
2022-08-07T12:38:10.353Z,24.04
2022-08-07T12:40:48.600Z,23.92
2022-08-07T12:44:02.069Z,23.96
2022-08-07T12:46:32.191Z,23.42
2022-08-07T12:49:09.765Z,23.90
2022-08-07T12:52:14.393Z,24.42
2022-08-07T12:55:05.317Z,23.87
2022-08-07T12:57:39.081Z,23.61
2022-08-07T13:00:33.027Z,23.79
2022-08-07T13:04:02.013Z,23.33
2022-08-07T13:06:54.366Z,22.98
2022-08-07T13:10:21.958Z,24.21
2022-08-07T13:12:36.357Z,24.44
2022-08-07T13:15:23.421Z,24.48
2022-08-07T13:18:08.651Z,24.84
2022-08-07T13:20:38.956Z,26.28
2022-08-07T13:24:00.073Z,26.19
2022-08-07T13:26:00.790Z,26.74
2022-08-07T13:28:48.135Z,26.83
2022-08-07T13:31:19.508Z,27.17
2022-08-07T13:34:34.509Z,27.45
2022-08-07T13:36:59.496Z,27.61
2022-08-07T13:40:33.244Z,27.21
2022-08-07T13:42:24.839Z,27.24
2022-08-07T13:44:55.267Z,27.41
2022-08-07T13:48:06.842Z,26.56
2022-08-07T13:50:32.842Z,26.74
2022-08-07T13:53:03.156Z,25.75
2022-08-07T13:55:29.537Z,26.11
2022-08-07T13:58:27.924Z,26.64
2022-08-07T14:00:58.552Z,27.21
2022-08-07T14:03:29.997Z,28.07
2022-08-07T14:06:11.956Z,28.83
2022-08-07T14:08:45.359Z,26.84
2022-08-07T14:11:17.398Z,25.86
2022-08-07T14:13:45.138Z,25.62
2022-08-07T14:16:16.120Z,25.62
2022-08-07T14:18:57.069Z,25.99
2022-08-07T14:22:01.396Z,26.02
2022-08-07T14:24:14.255Z,25.63
2022-08-07T14:26:50.328Z,25.81
2022-08-07T14:32:07.785Z,26.96
2022-08-07T14:34:34.235Z,26.37
2022-08-07T14:37:36.341Z,25.58
2022-08-07T14:40:17.598Z,26.08
2022-08-07T14:43:00.669Z,26.34
2022-08-07T14:45:46.482Z,25.14
2022-08-07T14:51:07.345Z,26.32
2022-08-07T14:54:08.892Z,26.01
2022-08-07T14:56:32.007Z,25.97
2022-08-07T15:01:53.398Z,25.16
2022-08-07T15:04:21.756Z,25.27
2022-08-07T15:06:51.633Z,25.29
2022-08-07T15:13:06.310Z,24.68
2022-08-07T15:14:57.980Z,24.27
2022-08-07T15:17:26.541Z,23.30
2022-08-07T15:25:36.925Z,24.06
2022-08-07T15:28:35.866Z,24.04
2022-08-07T15:31:05.393Z,24.25
2022-08-07T15:33:34.035Z,24.18
2022-08-07T15:36:05.070Z,24.23
2022-08-07T15:38:51.066Z,24.17
2022-08-07T15:41:23.461Z,23.68
2022-08-07T15:43:57.341Z,23.74
2022-08-07T15:46:31.785Z,23.45
2022-08-07T15:49:14.454Z,22.92
2022-08-07T15:54:26.402Z,22.08
2022-08-07T15:56:53.060Z,22.23
2022-08-07T15:59:20.239Z,22.31
2022-08-07T16:02:06.913Z,22.17
2022-08-07T16:04:35.788Z,22.24
2022-08-07T16:07:05.081Z,22.27
2022-08-07T16:09:52.971Z,21.60
2022-08-07T16:12:30.289Z,21.24
2022-08-07T16:15:05.581Z,20.70
2022-08-07T16:18:02.245Z,20.86
2022-08-07T16:20:33.478Z,20.76
2022-08-07T16:23:05.539Z,20.68
2022-08-07T16:25:56.755Z,20.57
2022-08-07T16:30:05.548Z,20.52
2022-08-07T16:31:51.329Z,20.44
2022-08-07T16:34:30.466Z,20.35
2022-08-07T16:37:03.067Z,20.57
2022-08-07T16:40:02.047Z,20.65
2022-08-07T16:42:47.763Z,20.51
2022-08-07T16:46:40.660Z,20.35
2022-08-07T16:48:27.824Z,20.19
2022-08-07T16:51:21.706Z,20.20
2022-08-07T16:54:19.023Z,20.14
2022-08-07T16:56:54.733Z,20.12
2022-08-07T16:59:46.064Z,20.02
2022-08-07T17:02:51.502Z,19.78
2022-08-07T17:06:28.470Z,19.82
2022-08-07T17:08:19.402Z,19.56
2022-08-07T17:10:54.193Z,19.51
2022-08-07T17:13:41.630Z,19.33
2022-08-07T17:16:20.338Z,19.13
2022-08-07T17:18:53.568Z,19.08
2022-08-07T17:21:24.033Z,19.17
2022-08-07T17:23:59.409Z,18.93
2022-08-07T17:26:59.551Z,18.95
2022-08-07T17:30:14.101Z,19.00
2022-08-07T17:32:30.595Z,18.98
2022-08-07T17:35:50.246Z,19.06
2022-08-07T17:38:32.232Z,19.13
2022-08-07T17:42:00.729Z,19.00
2022-08-07T17:44:02.726Z,18.80
2022-08-07T17:46:40.649Z,18.72
2022-08-07T17:49:14.894Z,18.65
2022-08-07T17:52:00.508Z,18.62
2022-08-07T17:54:53.010Z,18.53
2022-08-07T17:57:56.502Z,18.62
2022-08-07T18:00:33.666Z,18.75
2022-08-07T18:03:25.526Z,18.59
2022-08-07T18:06:06.679Z,18.53
2022-08-07T18:09:01.128Z,18.42
2022-08-07T18:12:16.092Z,18.33
2022-08-07T18:14:26.257Z,18.33
2022-08-07T18:16:59.005Z,18.15
2022-08-07T18:21:07.961Z,18.14
2022-08-07T18:22:26.444Z,18.24
2022-08-07T18:25:01.652Z,18.37
2022-08-07T18:27:55.030Z,18.16
2022-08-07T18:30:32.604Z,18.02
2022-08-07T18:33:15.627Z,17.92
2022-08-07T18:36:01.119Z,17.81
2022-08-07T18:38:58.567Z,17.79
2022-08-07T18:41:44.742Z,17.77
2022-08-07T18:44:30.737Z,17.78
2022-08-07T18:47:10.834Z,17.65
2022-08-07T18:50:31.877Z,17.87
2022-08-07T18:53:02.937Z,17.74
2022-08-07T18:55:41.649Z,17.59
2022-08-07T18:58:40.174Z,17.59
2022-08-07T19:02:17.215Z,17.30
2022-08-07T19:04:09.627Z,17.21
2022-08-07T19:06:53.237Z,17.27
2022-08-07T19:09:55.512Z,17.19
2022-08-07T19:12:10.487Z,17.26
2022-08-07T19:15:00.563Z,17.25
2022-08-07T19:17:59.333Z,17.22
2022-08-07T19:21:09.034Z,17.23
2022-08-07T19:23:58.537Z,17.14
2022-08-07T19:26:28.705Z,17.09
2022-08-07T19:30:57.101Z,17.07
2022-08-07T19:32:10.366Z,17.02
2022-08-07T19:34:34.065Z,16.99
2022-08-07T19:37:10.327Z,16.89
2022-08-07T19:39:57.810Z,16.86
2022-08-07T19:42:30.479Z,16.78
2022-08-07T19:44:58.873Z,16.81
2022-08-07T19:47:27.865Z,16.68
2022-08-07T19:49:58.249Z,16.67
2022-08-07T19:52:29.698Z,16.60
2022-08-07T19:54:58.136Z,16.64
2022-08-07T19:57:59.984Z,16.76
2022-08-07T20:00:27.948Z,16.70
2022-08-07T20:02:55.871Z,16.52
2022-08-07T20:05:29.843Z,16.54
2022-08-07T20:07:58.417Z,16.56
2022-08-07T20:10:51.976Z,16.64
2022-08-07T20:13:26.921Z,16.68
2022-08-07T20:15:55.258Z,16.77
2022-08-07T20:18:33.654Z,16.83
2022-08-07T20:21:42.212Z,16.81
2022-08-07T20:24:13.842Z,16.80
2022-08-07T20:26:45.010Z,16.70
2022-08-07T20:29:47.847Z,16.62
2022-08-07T20:32:11.607Z,16.50
2022-08-07T20:34:51.574Z,16.53
2022-08-07T20:37:25.221Z,16.45
2022-08-07T20:40:03.847Z,16.35
2022-08-07T20:42:31.282Z,16.08
2022-08-07T20:44:59.115Z,16.08
2022-08-07T20:47:55.244Z,16.09
2022-08-07T20:50:15.232Z,16.23
2022-08-07T20:52:51.458Z,16.16
2022-08-07T20:55:19.949Z,16.13
2022-08-07T20:58:02.430Z,16.18
2022-08-07T21:00:31.218Z,16.36
2022-08-07T21:02:57.993Z,16.27
2022-08-07T21:05:51.038Z,16.35
2022-08-07T21:08:14.653Z,16.41
2022-08-07T21:10:42.299Z,16.44
2022-08-07T21:13:11.358Z,16.28
2022-08-07T21:15:58.754Z,16.19
2022-08-07T21:18:29.484Z,16.09
2022-08-07T21:20:59.881Z,16.04
2022-08-07T21:23:26.379Z,15.98
2022-08-07T21:26:12.086Z,15.85
2022-08-07T21:28:48.705Z,15.87
2022-08-07T21:31:20.849Z,15.85
2022-08-07T21:34:02.860Z,15.84
2022-08-07T21:36:50.323Z,15.86
2022-08-07T21:39:45.457Z,15.74
2022-08-07T21:42:14.944Z,15.67
2022-08-07T21:44:52.994Z,15.58
2022-08-07T21:47:22.847Z,15.53
2022-08-07T21:50:01.186Z,15.45
2022-08-07T21:52:43.749Z,15.58
2022-08-07T21:55:28.309Z,15.49
2022-08-07T21:58:07.916Z,15.54
2022-08-07T22:00:39.926Z,15.61
2022-08-07T22:03:31.741Z,15.70
2022-08-07T22:05:58.848Z,15.53
2022-08-07T22:08:26.591Z,15.59
2022-08-07T22:10:55.289Z,15.69
2022-08-07T22:13:24.436Z,15.61
2022-08-07T22:16:43.091Z,15.49
2022-08-07T22:19:18.238Z,15.57
2022-08-07T22:22:04.681Z,15.53
2022-08-07T22:24:44.021Z,15.62
2022-08-07T22:27:19.110Z,15.70
2022-08-07T22:29:50.189Z,15.42
2022-08-07T22:32:25.856Z,15.38
2022-08-07T22:34:53.344Z,15.27
2022-08-07T22:37:19.874Z,15.21
2022-08-07T22:39:52.448Z,15.20
2022-08-07T22:42:54.137Z,15.20
2022-08-07T22:46:04.867Z,15.29
2022-08-07T22:48:31.352Z,15.17
2022-08-07T22:50:55.531Z,15.20
2022-08-07T22:54:05.366Z,15.15
2022-08-07T22:56:30.444Z,15.12
2022-08-07T22:59:23.218Z,15.05
2022-08-07T23:01:59.215Z,15.06
2022-08-07T23:04:32.943Z,15.16
2022-08-07T23:07:39.798Z,15.27
2022-08-07T23:10:37.967Z,15.30
2022-08-07T23:12:54.383Z,15.22
2022-08-07T23:16:06.483Z,15.15
2022-08-07T23:18:25.786Z,15.12
2022-08-07T23:21:07.389Z,15.11
2022-08-07T23:24:04.098Z,15.20
2022-08-07T23:26:50.342Z,15.19
2022-08-07T23:29:43.832Z,15.20
2022-08-07T23:34:21.523Z,15.08
2022-08-07T23:35:51.211Z,15.13
2022-08-07T23:38:36.669Z,15.18
2022-08-07T23:41:33.347Z,15.20
2022-08-07T23:44:01.198Z,15.16
2022-08-07T23:46:39.682Z,15.17
2022-08-07T23:49:49.891Z,15.09
2022-08-07T23:52:58.477Z,15.04
2022-08-07T23:55:10.015Z,15.09
2022-08-07T23:57:58.458Z,14.95
